sensor_id;sensor_type;location;lat;lon;timestamp;P1;P2;P0
58740;PMS7003;44512;53.046;18.604;2023-12-20T00:02:07;15;11;8
58740;PMS7003;44512;53.046;18.604;2023-12-20T00:12:35;12;10;7
58740;PMS7003;44512;53.046;18.604;2023-12-20T00:23:04;11;10;7
58740;PMS7003;44512;53.046;18.604;2023-12-20T00:33:32;11;10;8
58740;PMS7003;44512;53.046;18.604;2023-12-20T00:44:00;13;11;7
58740;PMS7003;44512;53.046;18.604;2023-12-20T00:54:29;9;7;6
58740;PMS7003;44512;53.046;18.604;2023-12-20T01:04:57;8;8;5
58740;PMS7003;44512;53.046;18.604;2023-12-20T01:15:26;9;8;5
58740;PMS7003;44512;53.046;18.604;2023-12-20T01:25:54;11;8;6
58740;PMS7003;44512;53.046;18.604;2023-12-20T01:36:23;12;9;6
58740;PMS7003;44512;53.046;18.604;2023-12-20T01:46:51;8;8;5
58740;PMS7003;44512;53.046;18.604;2023-12-20T01:57:19;7;6;5
58740;PMS7003;44512;53.046;18.604;2023-12-20T02:07:48;6;6;4
58740;PMS7003;44512;53.046;18.604;2023-12-20T02:18:16;8;6;5
58740;PMS7003;44512;53.046;18.604;2023-12-20T02:28:45;6;4;4
58740;PMS7003;44512;53.046;18.604;2023-12-20T02:39:13;5;5;4
58740;PMS7003;44512;53.046;18.604;2023-12-20T02:49:41;7;5;4
58740;PMS7003;44512;53.046;18.604;2023-12-20T03:00:10;5;5;4
58740;PMS7003;44512;53.046;18.604;2023-12-20T03:10:38;7;5;4
58740;PMS7003;44512;53.046;18.604;2023-12-20T03:21:07;6;5;4
58740;PMS7003;44512;53.046;18.604;2023-12-20T03:31:35;5;5;4
58740;PMS7003;44512;53.046;18.604;2023-12-20T03:42:04;11;5;4
58740;PMS7003;44512;53.046;18.604;2023-12-20T03:52:32;7;5;4
58740;PMS7003;44512;53.046;18.604;2023-12-20T04:03:00;7;5;5
58740;PMS7003;44512;53.046;18.604;2023-12-20T04:13:29;7;5;4
58740;PMS7003;44512;53.046;18.604;2023-12-20T04:23:57;7;5;4
58740;PMS7003;44512;53.046;18.604;2023-12-20T04:34:25;11;6;5
58740;PMS7003;44512;53.046;18.604;2023-12-20T04:44:54;8;6;5
58740;PMS7003;44512;53.046;18.604;2023-12-20T04:55:22;6;4;4
58740;PMS7003;44512;53.046;18.604;2023-12-20T05:05:51;7;6;4
58740;PMS7003;44512;53.046;18.604;2023-12-20T05:16:19;9;6;4
58740;PMS7003;44512;53.046;18.604;2023-12-20T05:26:47;5;5;4
58740;PMS7003;44512;53.046;18.604;2023-12-20T05:37:16;10;6;5
58740;PMS7003;44512;53.046;18.604;2023-12-20T05:47:44;6;4;4
58740;PMS7003;44512;53.046;18.604;2023-12-20T05:58:13;8;5;3
58740;PMS7003;44512;53.046;18.604;2023-12-20T06:08:41;12;9;6
58740;PMS7003;44512;53.046;18.604;2023-12-20T06:19:09;9;7;5
58740;PMS7003;44512;53.046;18.604;2023-12-20T06:29:38;8;6;5
58740;PMS7003;44512;53.046;18.604;2023-12-20T06:40:07;5;4;3
58740;PMS7003;44512;53.046;18.604;2023-12-20T06:50:34;7;4;4
58740;PMS7003;44512;53.046;18.604;2023-12-20T07:01:03;8;3;2
58740;PMS7003;44512;53.046;18.604;2023-12-20T07:11:31;7;5;4
58740;PMS7003;44512;53.046;18.604;2023-12-20T07:22:00;4;3;2
58740;PMS7003;44512;53.046;18.604;2023-12-20T07:32:28;5;3;2
58740;PMS7003;44512;53.046;18.604;2023-12-20T07:42:56;3;3;2
58740;PMS7003;44512;53.046;18.604;2023-12-20T07:53:25;11;8;6
58740;PMS7003;44512;53.046;18.604;2023-12-20T08:03:53;7;7;5
58740;PMS7003;44512;53.046;18.604;2023-12-20T08:14:22;8;6;5
58740;PMS7003;44512;53.046;18.604;2023-12-20T08:24:50;14;8;5
58740;PMS7003;44512;53.046;18.604;2023-12-20T08:35:18;11;7;5
58740;PMS7003;44512;53.046;18.604;2023-12-20T08:45:47;5;5;4
58740;PMS7003;44512;53.046;18.604;2023-12-20T08:56:15;2;2;1
58740;PMS7003;44512;53.046;18.604;2023-12-20T09:06:44;4;3;2
58740;PMS7003;44512;53.046;18.604;2023-12-20T09:17:12;4;4;3
58740;PMS7003;44512;53.046;18.604;2023-12-20T09:27:40;4;3;2
58740;PMS7003;44512;53.046;18.604;2023-12-20T09:38:09;3;2;1
58740;PMS7003;44512;53.046;18.604;2023-12-20T09:48:37;7;6;4
58740;PMS7003;44512;53.046;18.604;2023-12-20T09:59:06;8;6;4
58740;PMS7003;44512;53.046;18.604;2023-12-20T10:09:34;7;5;4
58740;PMS7003;44512;53.046;18.604;2023-12-20T10:20:03;9;6;4
58740;PMS7003;44512;53.046;18.604;2023-12-20T10:30:31;4;4;3
58740;PMS7003;44512;53.046;18.604;2023-12-20T10:40:59;5;4;4
58740;PMS7003;44512;53.046;18.604;2023-12-20T10:51:28;5;4;3
58740;PMS7003;44512;53.046;18.604;2023-12-20T11:01:56;4;4;3
58740;PMS7003;44512;53.046;18.604;2023-12-20T11:12:31;4;4;3
58740;PMS7003;44512;53.046;18.604;2023-12-20T11:22:53;5;4;3
58740;PMS7003;44512;53.046;18.604;2023-12-20T11:33:25;6;5;4
58740;PMS7003;44512;53.046;18.604;2023-12-20T11:49:00;6;5;3
58740;PMS7003;44512;53.046;18.604;2023-12-20T11:59:27;5;3;2
58740;PMS7003;44512;53.046;18.604;2023-12-20T12:09:55;4;2;2
58740;PMS7003;44512;53.046;18.604;2023-12-20T12:20:24;4;3;2
58740;PMS7003;44512;53.046;18.604;2023-12-20T12:30:56;4;3;1
58740;PMS7003;44512;53.046;18.604;2023-12-20T12:41:21;3;2;2
58740;PMS7003;44512;53.046;18.604;2023-12-20T12:51:49;6;3;2
58740;PMS7003;44512;53.046;18.604;2023-12-20T13:02:18;2;2;1
58740;PMS7003;44512;53.046;18.604;2023-12-20T13:12:46;3;3;2
58740;PMS7003;44512;53.046;18.604;2023-12-20T13:23:14;2;1;1
58740;PMS7003;44512;53.046;18.604;2023-12-20T13:33:43;6;1;1
58740;PMS7003;44512;53.046;18.604;2023-12-20T13:44:11;5;1;1
58740;PMS7003;44512;53.046;18.604;2023-12-20T13:54:39;3;2;1
58740;PMS7003;44512;53.046;18.604;2023-12-20T14:05:11;3;2;1
58740;PMS7003;44512;53.046;18.604;2023-12-20T14:15:36;4;3;2
58740;PMS7003;44512;53.046;18.604;2023-12-20T14:26:05;3;3;2
58740;PMS7003;44512;53.046;18.604;2023-12-20T14:36:34;7;4;3
58740;PMS7003;44512;53.046;18.604;2023-12-20T14:47:02;4;4;2
58740;PMS7003;44512;53.046;18.604;2023-12-20T14:57:30;8;4;3
58740;PMS7003;44512;53.046;18.604;2023-12-20T15:07:58;4;4;2
58740;PMS7003;44512;53.046;18.604;2023-12-20T15:18:27;6;4;3
58740;PMS7003;44512;53.046;18.604;2023-12-20T15:28:55;5;5;3
58740;PMS7003;44512;53.046;18.604;2023-12-20T15:39:23;6;4;3
58740;PMS7003;44512;53.046;18.604;2023-12-20T15:49:52;6;4;3
58740;PMS7003;44512;53.046;18.604;2023-12-20T16:00:20;6;5;4
58740;PMS7003;44512;53.046;18.604;2023-12-20T16:10:49;7;5;4
58740;PMS7003;44512;53.046;18.604;2023-12-20T16:21:17;6;4;3
58740;PMS7003;44512;53.046;18.604;2023-12-20T16:31:46;12;6;4
58740;PMS7003;44512;53.046;18.604;2023-12-20T16:42:14;9;7;5
58740;PMS7003;44512;53.046;18.604;2023-12-20T16:52:42;8;5;4
58740;PMS7003;44512;53.046;18.604;2023-12-20T17:03:11;9;6;5
58740;PMS7003;44512;53.046;18.604;2023-12-20T17:13:39;8;7;5
58740;PMS7003;44512;53.046;18.604;2023-12-20T17:24:08;7;5;4
58740;PMS7003;44512;53.046;18.604;2023-12-20T17:34:36;7;4;3
58740;PMS7003;44512;53.046;18.604;2023-12-20T17:45:05;4;4;3
58740;PMS7003;44512;53.046;18.604;2023-12-20T17:55:33;4;3;3
58740;PMS7003;44512;53.046;18.604;2023-12-20T18:06:01;3;3;2
58740;PMS7003;44512;53.046;18.604;2023-12-20T18:16:30;3;3;2
58740;PMS7003;44512;53.046;18.604;2023-12-20T18:26:58;6;3;3
58740;PMS7003;44512;53.046;18.604;2023-12-20T18:37:29;6;3;3
58740;PMS7003;44512;53.046;18.604;2023-12-20T18:47:54;6;5;3
58740;PMS7003;44512;53.046;18.604;2023-12-20T18:58:23;3;2;1
58740;PMS7003;44512;53.046;18.604;2023-12-20T19:08:51;4;3;2
58740;PMS7003;44512;53.046;18.604;2023-12-20T19:19:20;11;4;3
58740;PMS7003;44512;53.046;18.604;2023-12-20T19:29:48;5;4;3
58740;PMS7003;44512;53.046;18.604;2023-12-20T19:40:16;5;4;2
58740;PMS7003;44512;53.046;18.604;2023-12-20T19:50:45;5;1;1
58740;PMS7003;44512;53.046;18.604;2023-12-20T20:01:13;4;4;3
58740;PMS7003;44512;53.046;18.604;2023-12-20T20:11:42;3;2;2
58740;PMS7003;44512;53.046;18.604;2023-12-20T20:22:10;3;1;1
58740;PMS7003;44512;53.046;18.604;2023-12-20T20:32:39;7;4;3
58740;PMS7003;44512;53.046;18.604;2023-12-20T20:43:07;6;4;3
58740;PMS7003;44512;53.046;18.604;2023-12-20T20:53:35;4;4;2
58740;PMS7003;44512;53.046;18.604;2023-12-20T21:04:04;7;5;3
58740;PMS7003;44512;53.046;18.604;2023-12-20T21:14:32;5;3;2
58740;PMS7003;44512;53.046;18.604;2023-12-20T21:25:01;4;2;1
58740;PMS7003;44512;53.046;18.604;2023-12-20T21:35:29;4;2;2
58740;PMS7003;44512;53.046;18.604;2023-12-20T21:45:57;5;3;2
58740;PMS7003;44512;53.046;18.604;2023-12-20T21:56:26;3;3;2
58740;PMS7003;44512;53.046;18.604;2023-12-20T22:06:54;4;4;3
58740;PMS7003;44512;53.046;18.604;2023-12-20T22:17:23;6;6;4
58740;PMS7003;44512;53.046;18.604;2023-12-20T22:27:51;7;5;3
58740;PMS7003;44512;53.046;18.604;2023-12-20T22:38:19;5;3;3
58740;PMS7003;44512;53.046;18.604;2023-12-20T22:48:48;5;3;1
58740;PMS7003;44512;53.046;18.604;2023-12-20T22:59:16;4;3;3
58740;PMS7003;44512;53.046;18.604;2023-12-20T23:09:45;2;1;1
58740;PMS7003;44512;53.046;18.604;2023-12-20T23:20:13;4;3;2
58740;PMS7003;44512;53.046;18.604;2023-12-20T23:30:41;3;3;3
58740;PMS7003;44512;53.046;18.604;2023-12-20T23:41:10;5;4;3
58740;PMS7003;44512;53.046;18.604;2023-12-20T23:51:38;5;3;2
